This is the latest recevied weather packets stored in our database for station/object KO4LFZ. If no packets are shown the sender has not sent any weather packets the latest 10 day(s).
| Time | Temp. | Humidity | Pressure | Rain* | Wind** | Luminosity | Snow |
|---|---|---|---|---|---|---|---|
| 1777396575 | 25.56° C | 78% | 1014.7 hPa | 0 mm | - | 419 W/m² | - |
| 1777396273 | 25.56° C | 76% | 1014.7 hPa | 0 mm | - | 288 W/m² | - |
| 1777395969 | 25.56° C | 75% | 1014.7 hPa | 0 mm | - | 313 W/m² | - |
| 1777395664 | 26.11° C | 73% | 1014.6 hPa | 0 mm | - | 676 W/m² | - |
| 1777395361 | 25.56° C | 76% | 1014.7 hPa | 0 mm | - | 868 W/m² | - |
| 1777395059 | 25° C | 78% | 1014.8 hPa | 0 mm | - | 361 W/m² | - |
| 1777394755 | 25.56° C | 77% | 1014.8 hPa | 0 mm | - | 304 W/m² | - |
| 1777394451 | 26.11° C | 76% | 1014.9 hPa | 0 mm | - | 424 W/m² | - |
| 1777394147 | 26.11° C | 74% | 1014.9 hPa | 0 mm | - | 868 W/m² | - |
| 1777393843 | 25.56° C | 75% | 1015 hPa | 0 mm | - | 323 W/m² | - |
| 1777393542 | 25.56° C | 78% | 1015 hPa | 0 mm | - | 553 W/m² | - |
| 1777393238 | 23.89° C | 80% | 1015.3 hPa | 0 mm | - | 985 W/m² | - |
| 1777392935 | 23.89° C | 79% | 1015.3 hPa | 0 mm | - | 323 W/m² | - |
| 1777392630 | 23.89° C | 79% | 1015.4 hPa | 0 mm | - | 396 W/m² | - |
| 1777392327 | 23.89° C | 81% | 1015.3 hPa | 0 mm | - | 323 W/m² | - |
| 1777392027 | 23.89° C | 80% | 1015.4 hPa | 0 mm | - | 296 W/m² | - |
| 1777391722 | 23.89° C | 80% | 1015.4 hPa | 0 mm | - | 309 W/m² | - |
| 1777391419 | 23.89° C | 80% | 1015.5 hPa | 0 mm | - | 384 W/m² | - |
| 1777391115 | 23.89° C | 81% | 1015.4 hPa | 0 mm | - | 429 W/m² | - |
| 1777390811 | 23.33° C | 81% | 1015.5 hPa | 0 mm | - | 435 W/m² | - |
| 1777390509 | 22.78° C | 83% | 1015.3 hPa | 0 mm | - | 741 W/m² | - |
| 1777390205 | 22.78° C | 83% | 1015.9 hPa | 0 mm | - | 428 W/m² | - |
| 1777389901 | 22.78° C | 84% | 1015.6 hPa | 0 mm | - | 596 W/m² | - |
| 1777389598 | 22.78° C | 86% | 1015.8 hPa | 0 mm | - | 847 W/m² | - |
| 1777389294 | 22.22° C | 87% | 1015.7 hPa | 0 mm | - | 435 W/m² | - |
* Rain latest hour (hover to see other rain measurements)
** Current wind speed in m/s (hover to see current wind gust speed)